Time;durP1;ratioP1;P1;durP2;ratioP2;P2;SDS_P1;SDS_P2;PMS_P1;PMS_P2;Temp;Humidity;BMP_temperature;BMP_pressure;BME280_temperature;BME280_humidity;BME280_pressure;Samples;Min_cycle;Max_cycle;Signal;HPM_P1;HPM_P2
2022/11/03 00:02:10;;;;;;;0.40;0.20;;;;;;;14.00;49.17;95832.41;5111544;28;20431;-54
2022/11/03 00:04:38;;;;;;;0.40;0.30;;;;;;;14.02;48.85;95830.25;5112501;28;20431;-54
2022/11/03 00:07:07;;;;;;;0.40;0.20;;;;;;;14.08;49.10;95844.34;5112490;28;20427;-54
2022/11/03 00:09:35;;;;;;;0.40;0.30;;;;;;;14.09;48.88;95843.25;5112526;28;20950;-54
2022/11/03 00:12:04;;;;;;;0.40;0.20;;;;;;;13.84;49.70;95841.56;5112501;28;20435;-53
2022/11/03 00:14:32;;;;;;;0.50;0.30;;;;;;;13.63;50.22;95834.78;5112451;28;20432;-53
2022/11/03 00:17:02;;;;;;;0.40;0.30;;;;;;;13.83;49.84;95849.84;5112712;28;20419;-54
2022/11/03 00:19:30;;;;;;;0.50;0.37;;;;;;;13.51;50.17;95791.69;5112621;28;20435;-54
2022/11/03 00:21:59;;;;;;;0.57;0.43;;;;;;;13.53;51.45;95845.50;5112697;28;20427;-53
2022/11/03 00:24:27;;;;;;;0.87;0.87;;;;;;;13.47;51.39;95843.91;5112628;28;20450;-54
2022/11/03 00:26:56;;;;;;;4.20;1.13;;;;;;;13.04;53.18;95847.25;5111459;28;20478;-53
2022/11/03 00:29:24;;;;;;;2.20;0.87;;;;;;;13.29;51.98;95842.69;5112486;28;21026;-54
2022/11/03 00:31:53;;;;;;;0.50;0.33;;;;;;;13.19;52.89;95847.25;5112295;28;20427;-54
2022/11/03 00:34:22;;;;;;;0.40;0.30;;;;;;;13.24;52.55;95847.22;5112212;28;20962;-54
2022/11/03 00:36:50;;;;;;;0.40;0.20;;;;;;;13.20;52.64;95848.84;5112237;28;20431;-54
2022/11/03 00:39:19;;;;;;;0.40;0.20;;;;;;;13.21;52.52;95847.75;5112506;28;20435;-54
2022/11/03 00:41:47;;;;;;;1.03;0.93;;;;;;;12.95;53.15;95851.56;5111507;28;20415;-54
2022/11/03 00:44:15;;;;;;;1.53;0.53;;;;;;;13.10;52.29;95841.69;5111967;28;20454;-53
2022/11/03 00:46:44;;;;;;;0.40;0.20;;;;;;;13.38;51.87;95849.00;5112134;28;20414;-53
2022/11/03 00:49:12;;;;;;;0.67;0.67;;;;;;;13.47;51.63;95838.59;5111603;28;21025;-54
2022/11/03 00:51:41;;;;;;;0.90;0.50;;;;;;;13.48;51.68;95840.19;5112393;28;20425;-53
2022/11/03 00:54:10;;;;;;;0.80;0.63;;;;;;;13.28;52.20;95848.28;5111996;28;20439;-53
2022/11/03 00:56:40;;;;;;;0.40;0.30;;;;;;;13.39;51.73;95847.16;5112062;28;20424;-53
2022/11/03 00:59:10;;;;;;;0.40;0.40;;;;;;;13.35;51.60;95838.94;5112043;28;20445;-53
2022/11/03 01:01:40;;;;;;;1.47;0.30;;;;;;;13.34;52.21;95831.19;5112306;28;20454;-53
2022/11/03 01:07:04;;;;;;;0.40;0.27;;;;;;;13.39;51.59;95836.50;5111890;28;20921;-53
2022/11/03 01:09:35;;;;;;;0.40;0.20;;;;;;;13.55;52.59;95835.38;5111936;28;20466;-53
2022/11/03 01:12:05;;;;;;;1.80;1.73;;;;;;;13.35;50.89;95825.63;5111932;28;20437;-53
2022/11/03 01:14:36;;;;;;;0.40;0.20;;;;;;;13.24;51.28;95834.72;5114956;28;20427;-54
2022/11/03 01:17:05;;;;;;;0.40;0.20;;;;;;;13.12;51.29;95817.47;5115929;28;20448;-54
2022/11/03 01:19:34;;;;;;;0.40;0.20;;;;;;;13.27;51.24;95844.03;5115714;28;20536;-53
2022/11/03 01:22:04;;;;;;;0.40;0.20;;;;;;;13.20;51.14;95843.53;5115606;28;20439;-54
2022/11/03 01:24:38;;;;;;;0.40;0.20;;;;;;;12.61;53.06;95838.06;5115561;28;20453;-54
2022/11/03 01:27:06;;;;;;;0.40;0.30;;;;;;;12.56;52.94;95838.06;5115229;28;20477;-54
2022/11/03 01:29:34;;;;;;;0.40;0.20;;;;;;;13.04;52.32;95836.63;5115763;28;20493;-54
2022/11/03 01:32:02;;;;;;;0.40;0.20;;;;;;;13.10;52.33;95846.22;5115774;27;20433;-54
2022/11/03 01:34:31;;;;;;;0.97;0.50;;;;;;;13.25;52.12;95833.66;5115716;28;20422;-54
2022/11/03 01:37:00;;;;;;;0.60;0.30;;;;;;;13.34;51.68;95837.31;5115374;28;20423;-53
2022/11/03 01:39:29;;;;;;;0.40;0.30;;;;;;;13.41;51.23;95834.34;5115262;28;20442;-54
2022/11/03 01:41:58;;;;;;;0.40;0.30;;;;;;;13.38;51.26;95830.38;5115599;27;20453;-53
2022/11/03 01:44:29;;;;;;;0.40;0.20;;;;;;;13.29;52.27;95828.56;5115274;27;20434;-53
2022/11/03 01:47:03;;;;;;;1.23;1.13;;;;;;;13.00;52.03;95833.72;5115168;27;20442;-54
2022/11/03 01:49:37;;;;;;;0.40;0.20;;;;;;;12.39;52.20;95763.94;5114790;28;20465;-54
2022/11/03 01:52:10;;;;;;;0.40;0.30;;;;;;;12.98;51.68;95819.09;5115467;28;20427;-53
2022/11/03 01:54:43;;;;;;;0.40;0.30;;;;;;;13.13;51.36;95817.19;5114861;28;20439;-53
2022/11/03 01:57:15;;;;;;;0.40;0.20;;;;;;;13.28;51.26;95832.31;5115033;27;20416;-53
2022/11/03 01:59:46;;;;;;;0.40;0.20;;;;;;;12.92;52.21;95833.47;5114913;28;20915;-53
2022/11/03 02:02:15;;;;;;;0.40;0.20;;;;;;;12.47;53.34;95832.50;5114947;27;20433;-53
2022/11/03 02:04:44;;;;;;;0.63;0.63;;;;;;;12.52;53.27;95839.69;5114757;28;20429;-53
2022/11/03 02:07:19;;;;;;;1.57;0.67;;;;;;;12.35;54.64;95834.63;5115085;28;20423;-53
2022/11/03 02:09:48;;;;;;;0.40;0.20;;;;;;;11.98;55.39;95828.81;5114850;27;20485;-52
2022/11/03 02:12:18;;;;;;;0.40;0.20;;;;;;;12.21;54.42;95787.63;5114524;28;20424;-52
2022/11/03 02:14:52;;;;;;;0.40;0.30;;;;;;;12.28;55.79;95839.44;5114893;28;20432;-52
2022/11/03 02:17:23;;;;;;;0.40;0.20;;;;;;;12.43;55.43;95839.41;5114549;28;20431;-52
2022/11/03 02:19:56;;;;;;;0.40;0.20;;;;;;;12.62;54.45;95848.41;5114462;28;20946;-52
2022/11/03 02:22:49;;;;;;;1.07;0.57;;;;;;;12.50;54.92;95844.44;5114531;28;20425;-53
2022/11/03 02:25:33;;;;;;;0.40;0.30;;;;;;;12.52;54.61;95845.78;5101328;28;20446;-53
2022/11/03 02:28:03;;;;;;;1.63;0.50;;;;;;;12.50;54.99;95853.22;5114612;28;20446;-53
2022/11/03 02:30:37;;;;;;;0.50;0.50;;;;;;;12.29;55.13;95843.69;5114441;28;20473;-53
2022/11/03 02:33:15;;;;;;;0.40;0.30;;;;;;;12.44;54.88;95822.41;5114252;28;20421;-53
2022/11/03 02:35:51;;;;;;;1.33;0.53;;;;;;;12.58;54.22;95850.03;5114069;28;20451;-53
2022/11/03 02:38:21;;;;;;;0.43;0.27;;;;;;;12.60;54.37;95841.78;5114134;28;20805;-53
2022/11/03 02:40:54;;;;;;;0.40;0.20;;;;;;;12.55;53.72;95837.28;5113747;28;20434;-53
2022/11/03 02:43:25;;;;;;;0.40;0.30;;;;;;;12.60;53.93;95834.59;5114073;27;20947;-53
2022/11/03 02:45:55;;;;;;;0.40;0.30;;;;;;;12.69;53.43;95838.31;5113662;28;20438;-53
2022/11/03 02:48:23;;;;;;;0.57;0.37;;;;;;;12.65;53.46;95849.75;5113548;28;20424;-53
2022/11/03 02:50:51;;;;;;;6.37;2.67;;;;;;;12.43;53.34;95836.75;5113535;28;20936;-53
2022/11/03 02:53:20;;;;;;;0.40;0.20;;;;;;;12.66;53.30;95846.84;5113537;28;20432;-53
2022/11/03 02:55:56;;;;;;;0.40;0.20;;;;;;;12.37;52.73;95791.84;5113735;28;20434;-53
2022/11/03 02:58:29;;;;;;;0.40;0.20;;;;;;;12.67;52.95;95855.63;5113773;28;20926;-53
2022/11/03 03:01:04;;;;;;;0.40;0.20;;;;;;;12.93;52.59;95853.69;5113035;28;20959;-53
2022/11/03 03:03:37;;;;;;;0.37;0.20;;;;;;;12.71;53.01;95827.41;5111267;28;20439;-53
2022/11/03 03:06:09;;;;;;;0.50;0.30;;;;;;;12.71;53.35;95846.81;5113461;28;20435;-53
2022/11/03 03:08:43;;;;;;;0.50;0.50;;;;;;;12.81;53.43;95850.50;5113162;28;20447;-53
2022/11/03 03:11:13;;;;;;;0.80;0.40;;;;;;;12.70;53.62;95847.88;5113209;28;20436;-54
2022/11/03 03:13:44;;;;;;;0.40;0.30;;;;;;;12.61;54.05;95841.53;5112470;28;20440;-53
2022/11/03 03:16:16;;;;;;;0.40;0.30;;;;;;;12.48;53.78;95836.75;5113042;27;20447;-54
2022/11/03 03:18:51;;;;;;;0.70;0.70;;;;;;;12.55;53.61;95852.41;5113527;27;20430;-54
2022/11/03 03:21:23;;;;;;;0.80;0.80;;;;;;;12.39;53.77;95845.53;5112906;27;20716;-54
2022/11/03 03:23:57;;;;;;;0.40;0.20;;;;;;;12.37;53.28;95835.16;5112846;28;20417;-54
2022/11/03 03:26:33;;;;;;;1.00;0.30;;;;;;;12.19;55.15;95845.56;5111561;28;20477;-54
2022/11/03 03:29:07;;;;;;;0.50;0.43;;;;;;;12.26;55.28;95852.19;5112619;28;20495;-54
2022/11/03 03:31:39;;;;;;;0.40;0.20;;;;;;;12.06;56.31;95853.00;5112810;28;20422;-53
2022/11/03 03:34:08;;;;;;;0.60;0.60;;;;;;;12.06;56.01;95846.88;5112585;28;20871;-53
2022/11/03 03:36:59;;;;;;;0.40;0.30;;;;;;;11.79;56.28;95848.97;5112040;28;20483;-53
2022/11/03 03:39:33;;;;;;;1.00;0.50;;;;;;;11.83;56.90;95850.03;5112855;28;20944;-54
2022/11/03 03:42:04;;;;;;;0.40;0.30;;;;;;;11.90;56.40;95851.38;5112531;28;20411;-54
2022/11/03 03:44:35;;;;;;;0.60;0.50;;;;;;;11.98;56.97;95850.06;5112709;28;20432;-54
2022/11/03 03:47:09;;;;;;;0.40;0.30;;;;;;;12.14;56.08;95845.56;5112459;28;20437;-54
2022/11/03 03:49:37;;;;;;;0.60;0.60;;;;;;;12.06;56.20;95825.63;5112589;28;20465;-53
2022/11/03 03:52:08;;;;;;;0.60;0.40;;;;;;;11.90;56.54;95861.19;5112396;28;20417;-53
2022/11/03 03:54:36;;;;;;;0.83;0.83;;;;;;;12.18;55.87;95858.03;5111729;28;20469;-54
2022/11/03 03:57:10;;;;;;;0.40;0.20;;;;;;;12.40;55.35;95855.09;5112953;28;20424;-54
2022/11/03 03:59:38;;;;;;;0.40;0.40;;;;;;;12.31;54.75;95854.03;5112530;28;20428;-54
2022/11/03 04:02:06;;;;;;;0.40;0.30;;;;;;;12.22;54.25;95856.44;5112215;28;20434;-54
2022/11/03 04:04:35;;;;;;;0.40;0.20;;;;;;;11.98;55.64;95850.84;5112463;28;20464;-54
2022/11/03 04:09:49;;;;;;;0.40;0.30;;;;;;;12.39;54.56;95858.84;5112023;28;20495;-54
2022/11/03 04:23:24;;;;;;;0.70;0.70;;;;;;;12.46;54.01;95844.19;5085785;28;21033;-53
2022/11/03 04:25:54;;;;;;;1.60;0.77;;;;;;;12.60;56.58;95850.56;5111808;28;20471;-53
2022/11/03 04:28:25;;;;;;;0.40;0.30;;;;;;;12.54;54.33;95846.31;5111976;28;20920;-53
2022/11/03 04:30:57;;;;;;;0.40;0.20;;;;;;;12.46;54.18;95844.19;5112062;28;21147;-53
2022/11/03 04:33:27;;;;;;;0.40;0.30;;;;;;;12.51;53.99;95846.84;5112266;28;20423;-53
2022/11/03 04:35:57;;;;;;;0.40;0.20;;;;;;;12.53;53.56;95844.72;5111577;28;20432;-53
2022/11/03 04:38:27;;;;;;;0.53;0.30;;;;;;;12.22;55.58;95832.50;5112221;28;20432;-53
2022/11/03 04:40:58;;;;;;;0.40;0.30;;;;;;;12.18;55.50;95842.09;5112097;28;20436;-53
2022/11/03 04:43:34;;;;;;;0.83;0.70;;;;;;;11.99;56.26;95843.69;5111742;28;20480;-52
2022/11/03 04:46:03;;;;;;;0.40;0.30;;;;;;;11.99;55.70;95838.38;5111805;28;20425;-53
2022/11/03 04:48:34;;;;;;;0.60;0.60;;;;;;;11.87;55.88;95848.44;5114519;28;20440;-53
2022/11/03 04:51:11;;;;;;;0.40;0.20;;;;;;;11.68;56.48;95832.22;5116019;28;20482;-53
2022/11/03 04:53:43;;;;;;;0.50;0.47;;;;;;;11.68;56.89;95850.81;5116187;28;20457;-53
2022/11/03 04:56:16;;;;;;;0.40;0.20;;;;;;;11.62;56.50;95854.47;5115783;28;20433;-53
2022/11/03 04:58:47;;;;;;;0.40;0.30;;;;;;;11.47;57.50;95855.25;5116028;28;20778;-53
2022/11/03 05:01:18;;;;;;;0.60;0.57;;;;;;;11.14;59.05;95820.34;5115829;28;20429;-53
2022/11/03 05:03:53;;;;;;;0.50;0.40;;;;;;;11.48;58.39;95864.78;5116013;28;20761;-52
2022/11/03 05:06:23;;;;;;;1.37;1.37;;;;;;;11.52;58.03;95866.91;5115392;28;20893;-52
2022/11/03 05:08:55;;;;;;;0.40;0.30;;;;;;;11.35;58.85;95870.59;5114624;28;20420;-53
2022/11/03 05:11:30;;;;;;;0.73;0.57;;;;;;;11.23;59.47;95875.31;5115250;28;20467;-53
2022/11/03 05:14:02;;;;;;;0.57;0.30;;;;;;;11.04;59.01;95823.78;5115241;28;20492;-52
2022/11/03 05:16:31;;;;;;;0.40;0.30;;;;;;;11.24;59.37;95873.47;5115718;28;20435;-52
2022/11/03 05:19:00;;;;;;;1.93;1.90;;;;;;;11.19;59.36;95866.28;5115407;28;20424;-52
2022/11/03 05:21:29;;;;;;;5.20;2.30;;;;;;;10.36;59.03;95726.69;5115235;28;20451;-53
2022/11/03 05:24:02;;;;;;;4.60;1.00;;;;;;;11.33;58.57;95856.00;5115343;28;20427;-53
2022/11/03 05:26:34;;;;;;;4.30;1.47;;;;;;;11.35;59.76;95886.53;5114943;28;20473;-53
2022/11/03 05:29:10;;;;;;;2.10;1.90;;;;;;;11.24;59.38;95890.19;5114939;27;20443;-53
2022/11/03 05:31:41;;;;;;;1.63;1.53;;;;;;;11.56;58.52;95890.03;5114944;28;20475;-52
2022/11/03 05:34:26;;;;;;;6.73;3.23;;;;;;;11.61;58.84;95883.97;5114456;28;20427;-54
2022/11/03 05:36:54;;;;;;;2.73;2.30;;;;;;;11.23;60.01;95893.88;5115169;28;20422;-53
2022/11/03 05:39:31;;;;;;;16.37;2.67;;;;;;;11.91;57.84;95892.03;5115077;27;20481;-53
2022/11/03 05:42:00;;;;;;;1.50;1.40;;;;;;;12.29;56.41;95885.41;5114738;28;20748;-53
2022/11/03 05:44:35;;;;;;;1.47;1.47;;;;;;;12.66;55.32;95888.59;5114898;28;20425;-53
2022/11/03 05:47:13;;;;;;;0.67;0.67;;;;;;;12.90;55.38;95883.50;5115074;28;20416;-53
2022/11/03 05:49:41;;;;;;;5.10;0.60;;;;;;;13.01;55.08;95891.19;5114477;28;20443;-53
2022/11/03 05:52:14;;;;;;;1.70;0.50;;;;;;;13.35;54.18;95888.72;5114288;28;20473;-53
2022/11/03 05:54:42;;;;;;;5.10;0.77;;;;;;;13.60;53.52;95890.47;5114270;28;20436;-53
2022/11/03 05:57:13;;;;;;;3.23;2.47;;;;;;;13.28;54.76;95893.53;5114464;28;20446;-53
2022/11/03 05:59:45;;;;;;;0.90;0.90;;;;;;;12.93;55.55;95901.59;5114361;28;20448;-53
2022/11/03 06:02:28;;;;;;;6.00;3.60;;;;;;;12.69;55.01;95907.47;5114869;28;20435;-53
2022/11/03 06:04:58;;;;;;;13.00;3.50;;;;;;;13.00;56.15;95908.22;5114511;28;20439;-54
2022/11/03 06:07:30;;;;;;;0.40;0.30;;;;;;;13.30;54.82;95908.16;5113879;28;20436;-54
2022/11/03 06:09:58;;;;;;;2.83;0.90;;;;;;;13.36;54.62;95909.72;5114508;28;20444;-54
2022/11/03 06:12:29;;;;;;;0.97;0.70;;;;;;;13.63;53.79;95912.03;5114409;28;20428;-54
2022/11/03 06:14:59;;;;;;;0.70;0.50;;;;;;;13.73;52.86;95913.84;5114701;28;20453;-53
2022/11/03 06:17:29;;;;;;;0.50;0.40;;;;;;;13.40;53.30;95912.66;5114477;28;20427;-53
2022/11/03 06:19:59;;;;;;;0.93;0.70;;;;;;;13.99;52.25;95913.44;5114232;28;20427;-54
2022/11/03 06:22:30;;;;;;;0.60;0.30;;;;;;;14.32;51.40;95924.47;5113648;28;20440;-54
2022/11/03 06:25:01;;;;;;;0.50;0.50;;;;;;;14.18;51.70;95916.25;5114189;28;21079;-54
2022/11/03 06:27:34;;;;;;;1.37;1.27;;;;;;;13.84;52.53;95916.19;5113646;28;20849;-54
2022/11/03 06:30:21;;;;;;;2.23;1.50;;;;;;;13.61;55.19;95908.81;5114081;28;20437;-55
2022/11/03 06:32:49;;;;;;;1.10;0.90;;;;;;;13.88;54.92;95919.91;5114304;28;20426;-55
2022/11/03 06:35:18;;;;;;;1.40;1.40;;;;;;;13.99;58.59;95921.41;5113969;28;20906;-55
2022/11/03 06:37:47;;;;;;;0.50;0.40;;;;;;;13.81;54.54;95926.59;5114384;28;20425;-55
2022/11/03 06:40:34;;;;;;;0.70;0.70;;;;;;;13.72;54.74;95928.22;5113981;28;20425;-54
2022/11/03 06:43:23;;;;;;;0.57;0.40;;;;;;;15.72;62.08;95918.84;5113752;28;20427;-56
2022/11/03 06:45:55;;;;;;;0.50;0.50;;;;;;;16.47;48.58;95923.13;5113635;28;20667;-57
2022/11/03 06:48:28;;;;;;;1.47;1.37;;;;;;;16.00;49.04;95915.25;5113417;28;20423;-56
2022/11/03 06:50:58;;;;;;;0.93;0.80;;;;;;;16.19;47.63;95910.69;5113849;28;20461;-56
2022/11/03 06:53:31;;;;;;;0.70;0.70;;;;;;;16.08;48.10;95909.25;5113525;28;20430;-55
2022/11/03 06:56:00;;;;;;;1.10;0.77;;;;;;;16.25;47.75;95893.50;5113411;28;20435;-55
2022/11/03 06:58:32;;;;;;;0.63;0.43;;;;;;;16.54;46.92;95890.69;5112825;28;20455;-56
2022/11/03 07:01:04;;;;;;;0.93;0.93;;;;;;;16.81;46.93;95906.81;5113240;28;20909;-56
2022/11/03 07:03:36;;;;;;;5.93;2.13;;;;;;;16.86;46.40;95855.06;5113364;28;20442;-56
2022/11/03 07:06:20;;;;;;;1.53;1.50;;;;;;;17.23;45.91;95931.81;5112928;28;20424;-57
2022/11/03 07:08:51;;;;;;;1.83;1.73;;;;;;;17.80;44.94;95914.34;5113217;28;20435;-57
2022/11/03 07:11:21;;;;;;;2.80;1.90;;;;;;;18.31;44.30;95914.84;5112339;28;20467;-58
2022/11/03 07:13:52;;;;;;;1.00;0.90;;;;;;;18.92;43.33;95906.16;5113079;28;20879;-56
2022/11/03 07:16:28;;;;;;;0.83;0.83;;;;;;;19.33;42.27;95897.81;5112930;28;20446;-54
2022/11/03 07:18:59;;;;;;;1.90;0.90;;;;;;;19.45;41.24;95887.31;5113402;27;20419;-55
2022/11/03 07:21:35;;;;;;;0.90;0.90;;;;;;;19.27;41.22;95904.44;5113071;28;20436;-55
2022/11/03 07:24:14;;;;;;;1.70;0.93;;;;;;;19.39;41.00;95900.09;5113007;28;20786;-54
2022/11/03 07:26:42;;;;;;;2.00;0.97;;;;;;;20.65;39.52;95898.25;5112843;28;20546;-54
2022/11/03 07:29:18;;;;;;;2.70;1.27;;;;;;;20.71;38.99;95889.69;5112909;28;20424;-55
2022/11/03 07:31:48;;;;;;;0.73;0.50;;;;;;;21.00;38.00;95890.91;5112845;28;20595;-54
2022/11/03 07:34:22;;;;;;;0.40;0.30;;;;;;;21.45;37.50;95881.28;5112669;28;20912;-54
2022/11/03 07:36:51;;;;;;;0.40;0.30;;;;;;;21.17;38.14;95878.22;5112547;28;20429;-54
2022/11/03 07:39:30;;;;;;;0.60;0.40;;;;;;;20.77;38.18;95884.94;5112610;28;20477;-54
2022/11/03 07:41:58;;;;;;;0.60;0.40;;;;;;;20.32;38.83;95878.31;5112575;28;20427;-54
2022/11/03 07:44:26;;;;;;;0.40;0.30;;;;;;;19.98;38.84;95876.38;5112767;28;20878;-55
2022/11/03 07:46:56;;;;;;;5.50;3.03;;;;;;;20.06;38.61;95870.97;5112486;28;20424;-55
2022/11/03 07:49:27;;;;;;;0.70;0.70;;;;;;;19.91;38.96;95866.06;5112295;28;20431;-55
2022/11/03 07:51:57;;;;;;;0.50;0.50;;;;;;;20.04;38.77;95875.88;5112047;28;20463;-55
2022/11/03 07:54:30;;;;;;;0.50;0.40;;;;;;;20.27;39.05;95871.19;5112261;28;20950;-55
2022/11/03 07:57:00;;;;;;;1.00;0.70;;;;;;;19.49;40.25;95867.56;5112417;28;20424;-54
2022/11/03 07:59:33;;;;;;;3.43;1.03;;;;;;;19.22;40.77;95867.75;5112676;28;20428;-54
2022/11/03 08:02:11;;;;;;;0.70;0.57;;;;;;;19.22;40.99;95865.06;5111603;28;20420;-54
2022/11/03 08:04:40;;;;;;;1.03;0.93;;;;;;;19.22;40.17;95856.19;5112632;28;20512;-54
2022/11/03 08:07:08;;;;;;;0.63;0.63;;;;;;;19.45;40.53;95858.53;5111491;28;20432;-54
2022/11/03 08:09:36;;;;;;;5.80;0.63;;;;;;;19.65;40.02;95859.84;5112471;28;20438;-55
2022/11/03 08:12:05;;;;;;;3.60;0.97;;;;;;;19.77;39.90;95857.34;5112080;28;20463;-55
2022/11/03 08:14:34;;;;;;;0.70;0.70;;;;;;;19.36;40.86;95864.94;5112121;28;20444;-55
2022/11/03 08:17:03;;;;;;;0.87;0.87;;;;;;;19.76;40.71;95868.44;5112518;28;20438;-55
2022/11/03 08:19:32;;;;;;;0.97;0.80;;;;;;;19.83;41.06;95866.06;5112224;28;20666;-55
2022/11/03 08:22:00;;;;;;;0.40;0.20;;;;;;;19.80;40.64;95867.47;5112224;28;20442;-55
2022/11/03 08:24:28;;;;;;;0.57;0.37;;;;;;;20.39;39.18;95857.88;5112290;28;20434;-55
2022/11/03 08:26:57;;;;;;;0.50;0.37;;;;;;;20.25;39.29;95862.63;5110826;28;20467;-55
2022/11/03 08:29:26;;;;;;;0.93;0.93;;;;;;;20.57;38.96;95854.06;5111402;28;20439;-55
2022/11/03 08:31:54;;;;;;;12.90;1.43;;;;;;;19.99;39.88;95849.13;5112019;28;20501;-55
2022/11/03 08:34:24;;;;;;;0.93;0.93;;;;;;;20.29;39.48;95846.66;5111995;28;20436;-55
2022/11/03 08:36:52;;;;;;;1.37;0.70;;;;;;;20.59;38.92;95834.91;5111774;28;20423;-56
2022/11/03 08:39:20;;;;;;;0.50;0.40;;;;;;;21.26;37.83;95830.44;5112142;28;20443;-55
2022/11/03 08:41:49;;;;;;;0.50;0.30;;;;;;;21.68;37.44;95831.31;5111835;28;20439;-55
2022/11/03 08:47:03;;;;;;;0.80;0.80;;;;;;;20.94;38.84;95819.44;5112129;28;20424;-56
2022/11/03 08:49:32;;;;;;;0.50;0.47;;;;;;;20.21;39.24;95816.69;5111914;28;20431;-56
2022/11/03 08:52:00;;;;;;;3.20;0.70;;;;;;;19.78;40.08;95832.03;5111604;28;20467;-55
2022/11/03 08:54:29;;;;;;;1.23;0.40;;;;;;;19.83;40.41;95823.81;5111745;28;20808;-55
2022/11/03 08:56:57;;;;;;;0.50;0.50;;;;;;;19.46;40.87;95829.72;5111987;28;20432;-56
2022/11/03 08:59:25;;;;;;;0.50;0.40;;;;;;;20.02;39.99;95826.19;5111871;28;20808;-56
2022/11/03 09:01:53;;;;;;;0.60;0.60;;;;;;;20.07;38.93;95817.94;5111745;28;20431;-56
2022/11/03 09:04:22;;;;;;;1.07;1.07;;;;;;;20.10;38.83;95826.19;5111848;28;20515;-56
2022/11/03 09:06:51;;;;;;;0.40;0.30;;;;;;;20.75;38.42;95817.91;5111283;28;20476;-55
2022/11/03 09:09:20;;;;;;;0.67;0.40;;;;;;;20.15;39.02;95817.97;5111635;28;20424;-55
2022/11/03 09:12:08;;;;;;;0.40;0.30;;;;;;;20.52;38.95;95802.25;5111203;28;20479;-55
2022/11/03 09:14:37;;;;;;;0.93;0.93;;;;;;;20.23;38.82;95803.75;5111854;28;20746;-55
2022/11/03 09:17:06;;;;;;;0.40;0.30;;;;;;;20.54;38.72;95810.84;5111076;28;20432;-55
2022/11/03 09:19:34;;;;;;;0.60;0.50;;;;;;;21.41;37.20;95797.53;5111833;28;20424;-55
2022/11/03 09:22:04;;;;;;;1.13;0.57;;;;;;;22.09;35.54;95798.19;5111530;28;20464;-56
2022/11/03 09:24:32;;;;;;;0.90;0.70;;;;;;;21.87;34.37;95793.94;5111819;28;20440;-56
2022/11/03 09:27:01;;;;;;;0.73;0.73;;;;;;;22.35;34.21;95790.66;5110988;28;20483;-56
2022/11/03 09:29:29;;;;;;;0.70;0.50;;;;;;;23.07;33.07;95781.94;5111763;28;20453;-59
2022/11/03 09:32:18;;;;;;;0.40;0.30;;;;;;;23.55;32.69;95778.50;5111049;28;20475;-55
2022/11/03 09:34:50;;;;;;;2.40;0.63;;;;;;;23.52;32.96;95775.69;5114153;28;20908;-55
2022/11/03 09:37:21;;;;;;;0.60;0.57;;;;;;;23.07;33.50;95773.06;5115307;28;20424;-55
2022/11/03 09:39:50;;;;;;;0.87;0.87;;;;;;;23.54;33.50;95757.97;5115198;28;20443;-55
2022/11/03 09:42:19;;;;;;;0.90;0.60;;;;;;;23.75;33.61;95749.69;5115255;28;20435;-55
2022/11/03 09:44:49;;;;;;;0.50;0.40;;;;;;;22.97;34.31;95760.00;5115139;28;20428;-55
2022/11/03 09:47:23;;;;;;;0.67;0.50;;;;;;;23.52;34.16;95754.81;5115154;28;20427;-56
2022/11/03 09:49:51;;;;;;;1.30;1.10;;;;;;;23.54;33.24;95740.94;5114980;28;20892;-55
2022/11/03 09:52:23;;;;;;;0.90;0.47;;;;;;;23.99;32.79;95745.00;5114859;28;20479;-55
2022/11/03 09:54:54;;;;;;;4.43;0.50;;;;;;;23.79;33.08;95743.25;5114610;28;20424;-56
2022/11/03 09:57:22;;;;;;;1.00;0.40;;;;;;;24.24;32.01;95734.09;5114801;28;20426;-55
2022/11/03 09:59:51;;;;;;;0.50;0.30;;;;;;;24.70;31.29;95727.19;5114635;28;20927;-55
2022/11/03 10:02:26;;;;;;;0.53;0.50;;;;;;;24.27;32.01;95727.97;5114816;28;20843;-55
2022/11/03 10:04:57;;;;;;;10.13;0.80;;;;;;;23.91;32.61;95726.19;5114492;28;20435;-54
2022/11/03 10:07:29;;;;;;;1.13;0.80;;;;;;;24.12;32.09;95712.47;5114738;28;20902;-54
2022/11/03 10:10:00;;;;;;;0.50;0.40;;;;;;;24.41;30.70;95688.50;5114256;28;20428;-55
2022/11/03 10:12:32;;;;;;;0.70;0.60;;;;;;;24.42;32.16;95721.81;5113312;28;20467;-54
2022/11/03 10:15:01;;;;;;;7.50;0.40;;;;;;;25.15;31.02;95703.13;5114532;28;20428;-53
2022/11/03 10:17:30;;;;;;;2.10;2.00;;;;;;;26.60;28.65;95711.63;5114153;27;20436;-52
2022/11/03 10:20:02;;;;;;;1.27;1.17;;;;;;;27.71;27.82;95692.81;5114094;28;20435;-53
2022/11/03 10:22:32;;;;;;;0.40;0.30;;;;;;;28.90;27.75;95698.06;5113856;28;20432;-52
2022/11/03 10:25:28;;;;;;;1.73;0.70;;;;;;;28.66;26.93;95616.00;5113885;28;20798;-52
2022/11/03 10:28:14;;;;;;;1.23;1.23;;;;;;;29.75;26.73;95678.75;5114257;28;20439;-52
2022/11/03 10:30:50;;;;;;;1.27;0.43;;;;;;;30.26;25.01;95667.66;5114062;28;20431;-52
2022/11/03 10:33:40;;;;;;;0.67;0.67;;;;;;;29.60;27.27;95675.16;5113717;28;20956;-52
2022/11/03 10:36:23;;;;;;;3.90;1.07;;;;;;;29.74;27.15;95677.97;5113785;27;20998;-52
2022/11/03 10:38:54;;;;;;;3.60;1.13;;;;;;;30.65;25.98;95663.06;5114076;28;20424;-52
2022/11/03 10:41:25;;;;;;;0.80;0.80;;;;;;;30.56;25.40;95595.03;5114399;28;20458;-53
2022/11/03 10:44:02;;;;;;;0.60;0.60;;;;;;;31.34;24.65;95645.09;5113584;28;20443;-52
2022/11/03 10:46:31;;;;;;;0.60;0.60;;;;;;;30.98;24.10;95624.41;5113662;28;20419;-53
2022/11/03 10:49:20;;;;;;;0.53;0.53;;;;;;;31.65;23.20;95642.69;5113294;28;20443;-53
2022/11/03 10:51:51;;;;;;;2.60;0.63;;;;;;;32.40;22.50;95632.94;5113387;28;20523;-52
2022/11/03 10:54:23;;;;;;;0.60;0.50;;;;;;;32.05;22.64;95625.72;5113596;28;20562;-52
2022/11/03 10:56:52;;;;;;;1.37;1.27;;;;;;;32.69;22.52;95619.84;5113646;28;20493;-54
2022/11/03 10:59:24;;;;;;;2.90;0.40;;;;;;;33.82;22.05;95623.09;5113577;28;20424;-52
2022/11/03 11:01:52;;;;;;;0.60;0.60;;;;;;;33.43;21.50;95611.72;5113318;28;21099;-52
2022/11/03 11:04:21;;;;;;;0.30;0.30;;;;;;;34.69;21.61;95597.50;5113119;28;20459;-52
2022/11/03 11:06:49;;;;;;;0.47;0.40;;;;;;;34.31;21.15;95604.34;5113317;28;20968;-52
2022/11/03 11:09:24;;;;;;;1.17;0.73;;;;;;;34.33;21.56;95604.75;5113323;28;20439;-52
2022/11/03 11:12:00;;;;;;;0.40;0.30;;;;;;;35.02;21.87;95588.31;5113124;28;20827;-52
2022/11/03 11:14:38;;;;;;;0.70;0.70;;;;;;;33.29;21.19;95584.41;5113497;28;20466;-52
2022/11/03 11:17:43;;;;;;;0.50;0.43;;;;;;;32.96;22.04;95590.56;5113096;28;20467;-53
2022/11/03 11:20:28;;;;;;;8.40;0.50;;;;;;;33.23;22.19;95580.53;5113338;28;20817;-52
2022/11/03 11:23:51;;;;;;;4.87;0.47;;;;;;;33.06;21.63;95581.50;5113335;28;20435;-52
2022/11/03 11:26:43;;;;;;;0.40;0.30;;;;;;;33.18;21.57;95581.75;5112737;28;20478;-52
2022/11/03 11:29:39;;;;;;;0.87;0.40;;;;;;;32.44;22.49;95573.31;5113196;28;20439;-52
2022/11/03 11:32:48;;;;;;;0.40;0.30;;;;;;;33.48;22.30;95567.28;5112813;28;20427;-52
2022/11/03 11:35:37;;;;;;;0.40;0.40;;;;;;;33.35;21.40;95551.72;5091328;28;20268;-52
2022/11/03 11:38:41;;;;;;;3.63;0.73;;;;;;;33.77;21.32;95565.78;5112950;28;20428;-53
2022/11/03 11:41:10;;;;;;;0.30;0.30;;;;;;;33.98;21.05;95553.69;5090188;28;20199;-52
2022/11/03 11:43:39;;;;;;;0.90;0.90;;;;;;;33.42;21.71;95552.44;5112537;28;20437;-53
2022/11/03 11:46:41;;;;;;;1.10;1.10;;;;;;;33.73;21.77;95547.75;5112826;28;20546;-53
2022/11/03 11:49:17;;;;;;;1.03;0.83;;;;;;;33.45;21.12;95548.06;5049678;28;20581;-53
2022/11/03 11:51:46;;;;;;;0.40;0.30;;;;;;;34.53;21.40;95544.28;5049546;28;20201;-53
2022/11/03 11:54:19;;;;;;;0.70;0.70;;;;;;;34.30;21.62;95521.03;5082517;28;20224;-53
2022/11/03 11:56:49;;;;;;;0.40;0.30;;;;;;;34.67;21.52;95533.03;5112004;28;20634;-54
2022/11/03 11:59:22;;;;;;;2.00;0.43;;;;;;;34.00;21.36;95532.09;5112405;28;20185;-53
2022/11/03 12:01:56;;;;;;;0.70;0.70;;;;;;;34.76;20.45;95525.78;5111772;28;20185;-53
2022/11/03 12:04:27;;;;;;;1.63;0.40;;;;;;;34.59;20.38;95523.34;5112650;28;20704;-53
2022/11/03 12:06:56;;;;;;;0.47;0.43;;;;;;;34.76;20.89;95519.53;5112249;28;20185;-54
2022/11/03 12:09:27;;;;;;;0.90;0.90;;;;;;;34.57;20.92;95478.94;5112605;28;20244;-58
2022/11/03 12:11:57;;;;;;;0.73;0.73;;;;;;;35.21;21.00;95503.38;5112155;28;20189;-58
2022/11/03 12:14:36;;;;;;;1.13;0.67;;;;;;;35.20;20.24;95491.56;5112103;28;20205;-57
2022/11/03 12:17:33;;;;;;;1.50;1.40;;;;;;;34.22;20.97;95499.53;5111967;28;20193;-57
2022/11/03 12:20:21;;;;;;;0.68;0.68;;;;;;;34.43;21.08;95497.22;5112368;28;20208;-55